sensor_id;sensor_type;location;lat;lon;timestamp;P1;durP1;ratioP1;P2;durP2;ratioP2
20365;SDS011;10341;49.894;8.822;2023-07-20T00:04:53;3.20;;;1.60;;
20365;SDS011;10341;49.894;8.822;2023-07-20T00:10:12;3.17;;;1.75;;
20365;SDS011;10341;49.894;8.822;2023-07-20T00:15:31;2.47;;;1.90;;
20365;SDS011;10341;49.894;8.822;2023-07-20T00:20:50;2.08;;;1.40;;
20365;SDS011;10341;49.894;8.822;2023-07-20T00:26:09;1.73;;;1.23;;
20365;SDS011;10341;49.894;8.822;2023-07-20T00:31:29;1.98;;;1.30;;
20365;SDS011;10341;49.894;8.822;2023-07-20T00:36:49;1.50;;;1.40;;
20365;SDS011;10341;49.894;8.822;2023-07-20T00:42:08;1.50;;;1.40;;
20365;SDS011;10341;49.894;8.822;2023-07-20T00:47:27;2.38;;;1.70;;
20365;SDS011;10341;49.894;8.822;2023-07-20T00:52:47;2.75;;;1.75;;
20365;SDS011;10341;49.894;8.822;2023-07-20T00:58:08;1.85;;;1.20;;
20365;SDS011;10341;49.894;8.822;2023-07-20T01:03:27;2.22;;;1.50;;
20365;SDS011;10341;49.894;8.822;2023-07-20T01:14:08;1.55;;;1.38;;
20365;SDS011;10341;49.894;8.822;2023-07-20T01:19:29;2.53;;;1.65;;
20365;SDS011;10341;49.894;8.822;2023-07-20T01:24:52;2.15;;;1.50;;
20365;SDS011;10341;49.894;8.822;2023-07-20T01:36:04;1.92;;;1.55;;
20365;SDS011;10341;49.894;8.822;2023-07-20T01:41:25;2.13;;;1.60;;
20365;SDS011;10341;49.894;8.822;2023-07-20T01:46:44;3.37;;;1.77;;
20365;SDS011;10341;49.894;8.822;2023-07-20T01:52:03;2.47;;;1.80;;
20365;SDS011;10341;49.894;8.822;2023-07-20T01:57:23;1.65;;;1.45;;
20365;SDS011;10341;49.894;8.822;2023-07-20T02:02:42;3.13;;;1.80;;
20365;SDS011;10341;49.894;8.822;2023-07-20T02:08:02;3.05;;;2.03;;
20365;SDS011;10341;49.894;8.822;2023-07-20T02:13:22;2.35;;;1.77;;
20365;SDS011;10341;49.894;8.822;2023-07-20T02:18:41;2.38;;;1.80;;
20365;SDS011;10341;49.894;8.822;2023-07-20T02:24:00;3.13;;;1.60;;
20365;SDS011;10341;49.894;8.822;2023-07-20T02:29:20;2.72;;;1.70;;
20365;SDS011;10341;49.894;8.822;2023-07-20T02:34:39;2.77;;;1.77;;
20365;SDS011;10341;49.894;8.822;2023-07-20T02:39:59;2.88;;;1.70;;
20365;SDS011;10341;49.894;8.822;2023-07-20T02:45:20;2.58;;;1.77;;
20365;SDS011;10341;49.894;8.822;2023-07-20T02:50:39;2.38;;;1.67;;
20365;SDS011;10341;49.894;8.822;2023-07-20T02:55:58;2.13;;;1.40;;
20365;SDS011;10341;49.894;8.822;2023-07-20T03:01:17;2.20;;;1.73;;
20365;SDS011;10341;49.894;8.822;2023-07-20T03:06:37;2.35;;;1.88;;
20365;SDS011;10341;49.894;8.822;2023-07-20T03:11:57;1.80;;;1.40;;
20365;SDS011;10341;49.894;8.822;2023-07-20T03:17:16;1.95;;;1.63;;
20365;SDS011;10341;49.894;8.822;2023-07-20T03:22:38;3.05;;;2.20;;
20365;SDS011;10341;49.894;8.822;2023-07-20T03:27:58;3.33;;;1.70;;
20365;SDS011;10341;49.894;8.822;2023-07-20T03:33:17;2.27;;;1.87;;
20365;SDS011;10341;49.894;8.822;2023-07-20T03:38:37;3.80;;;2.17;;
20365;SDS011;10341;49.894;8.822;2023-07-20T03:43:56;3.97;;;1.97;;
20365;SDS011;10341;49.894;8.822;2023-07-20T03:49:16;4.50;;;1.90;;
20365;SDS011;10341;49.894;8.822;2023-07-20T03:54:36;2.53;;;1.63;;
20365;SDS011;10341;49.894;8.822;2023-07-20T03:59:55;2.50;;;2.00;;
20365;SDS011;10341;49.894;8.822;2023-07-20T04:05:15;4.27;;;2.00;;
20365;SDS011;10341;49.894;8.822;2023-07-20T04:10:35;4.55;;;2.42;;
20365;SDS011;10341;49.894;8.822;2023-07-20T04:15:54;4.75;;;2.40;;
20365;SDS011;10341;49.894;8.822;2023-07-20T04:21:13;4.17;;;2.50;;
20365;SDS011;10341;49.894;8.822;2023-07-20T04:26:33;3.70;;;2.28;;
20365;SDS011;10341;49.894;8.822;2023-07-20T04:31:52;3.58;;;2.38;;
20365;SDS011;10341;49.894;8.822;2023-07-20T04:37:12;3.03;;;2.28;;
20365;SDS011;10341;49.894;8.822;2023-07-20T04:42:31;5.90;;;2.77;;
20365;SDS011;10341;49.894;8.822;2023-07-20T04:47:51;3.67;;;2.42;;
20365;SDS011;10341;49.894;8.822;2023-07-20T04:53:12;3.72;;;2.58;;
20365;SDS011;10341;49.894;8.822;2023-07-20T04:58:32;3.20;;;2.25;;
20365;SDS011;10341;49.894;8.822;2023-07-20T05:03:52;3.97;;;2.42;;
20365;SDS011;10341;49.894;8.822;2023-07-20T05:09:11;2.58;;;2.05;;
20365;SDS011;10341;49.894;8.822;2023-07-20T05:14:31;4.90;;;2.33;;
20365;SDS011;10341;49.894;8.822;2023-07-20T05:19:51;2.87;;;1.90;;
20365;SDS011;10341;49.894;8.822;2023-07-20T05:25:10;2.83;;;1.80;;
20365;SDS011;10341;49.894;8.822;2023-07-20T05:30:30;5.00;;;2.25;;
20365;SDS011;10341;49.894;8.822;2023-07-20T05:35:49;2.33;;;1.90;;
20365;SDS011;10341;49.894;8.822;2023-07-20T05:41:09;2.00;;;1.70;;
20365;SDS011;10341;49.894;8.822;2023-07-20T05:46:29;2.10;;;1.73;;
20365;SDS011;10341;49.894;8.822;2023-07-20T05:51:48;2.53;;;1.57;;
20365;SDS011;10341;49.894;8.822;2023-07-20T05:57:07;1.95;;;1.25;;
20365;SDS011;10341;49.894;8.822;2023-07-20T06:02:27;2.50;;;1.50;;
20365;SDS011;10341;49.894;8.822;2023-07-20T06:07:47;4.38;;;2.00;;
20365;SDS011;10341;49.894;8.822;2023-07-20T06:13:07;3.67;;;1.60;;
20365;SDS011;10341;49.894;8.822;2023-07-20T06:18:26;2.88;;;1.60;;
20365;SDS011;10341;49.894;8.822;2023-07-20T06:23:45;2.10;;;1.48;;
20365;SDS011;10341;49.894;8.822;2023-07-20T06:29:05;3.10;;;1.70;;
20365;SDS011;10341;49.894;8.822;2023-07-20T06:34:27;4.22;;;1.75;;
20365;SDS011;10341;49.894;8.822;2023-07-20T06:39:48;3.22;;;1.80;;
20365;SDS011;10341;49.894;8.822;2023-07-20T06:45:07;2.10;;;1.70;;
20365;SDS011;10341;49.894;8.822;2023-07-20T06:50:27;2.03;;;1.30;;
20365;SDS011;10341;49.894;8.822;2023-07-20T06:55:46;4.97;;;1.50;;
20365;SDS011;10341;49.894;8.822;2023-07-20T07:01:07;3.10;;;1.95;;
20365;SDS011;10341;49.894;8.822;2023-07-20T07:06:27;4.15;;;1.80;;
20365;SDS011;10341;49.894;8.822;2023-07-20T07:17:06;2.65;;;1.65;;
20365;SDS011;10341;49.894;8.822;2023-07-20T07:22:26;3.75;;;1.40;;
20365;SDS011;10341;49.894;8.822;2023-07-20T07:27:45;3.63;;;1.55;;
20365;SDS011;10341;49.894;8.822;2023-07-20T07:33:04;2.95;;;1.80;;
20365;SDS011;10341;49.894;8.822;2023-07-20T07:38:23;3.10;;;1.92;;
20365;SDS011;10341;49.894;8.822;2023-07-20T07:43:43;2.72;;;1.60;;
20365;SDS011;10341;49.894;8.822;2023-07-20T07:49:02;2.45;;;1.60;;
20365;SDS011;10341;49.894;8.822;2023-07-20T07:54:22;1.90;;;1.33;;
20365;SDS011;10341;49.894;8.822;2023-07-20T07:59:42;2.88;;;1.48;;
20365;SDS011;10341;49.894;8.822;2023-07-20T08:05:01;4.83;;;1.73;;
20365;SDS011;10341;49.894;8.822;2023-07-20T08:10:21;2.08;;;1.48;;
20365;SDS011;10341;49.894;8.822;2023-07-20T08:15:46;3.17;;;1.83;;
20365;SDS011;10341;49.894;8.822;2023-07-20T08:21:08;1.42;;;1.30;;
20365;SDS011;10341;49.894;8.822;2023-07-20T08:26:27;2.07;;;1.30;;
20365;SDS011;10341;49.894;8.822;2023-07-20T08:31:46;2.50;;;1.30;;
20365;SDS011;10341;49.894;8.822;2023-07-20T08:42:24;3.40;;;1.50;;
20365;SDS011;10341;49.894;8.822;2023-07-20T08:47:44;2.10;;;1.42;;
20365;SDS011;10341;49.894;8.822;2023-07-20T08:53:06;3.25;;;1.23;;
20365;SDS011;10341;49.894;8.822;2023-07-20T08:58:26;3.17;;;1.40;;
20365;SDS011;10341;49.894;8.822;2023-07-20T09:03:47;1.90;;;1.10;;
20365;SDS011;10341;49.894;8.822;2023-07-20T09:09:07;3.90;;;1.55;;
20365;SDS011;10341;49.894;8.822;2023-07-20T09:14:26;3.20;;;1.40;;
20365;SDS011;10341;49.894;8.822;2023-07-20T09:19:50;2.67;;;1.20;;
20365;SDS011;10341;49.894;8.822;2023-07-20T09:25:14;1.88;;;1.00;;
20365;SDS011;10341;49.894;8.822;2023-07-20T09:30:41;2.17;;;1.23;;
20365;SDS011;10341;49.894;8.822;2023-07-20T09:36:03;2.13;;;0.98;;
20365;SDS011;10341;49.894;8.822;2023-07-20T09:41:23;2.53;;;1.13;;
20365;SDS011;10341;49.894;8.822;2023-07-20T09:46:49;1.50;;;1.20;;
20365;SDS011;10341;49.894;8.822;2023-07-20T09:52:09;1.45;;;1.13;;
20365;SDS011;10341;49.894;8.822;2023-07-20T09:57:30;3.58;;;1.40;;
20365;SDS011;10341;49.894;8.822;2023-07-20T10:02:51;2.13;;;1.23;;
20365;SDS011;10341;49.894;8.822;2023-07-20T10:08:12;1.77;;;1.15;;
20365;SDS011;10341;49.894;8.822;2023-07-20T10:13:32;2.25;;;1.00;;
20365;SDS011;10341;49.894;8.822;2023-07-20T10:19:07;1.67;;;1.10;;
20365;SDS011;10341;49.894;8.822;2023-07-20T10:24:38;1.75;;;1.02;;
20365;SDS011;10341;49.894;8.822;2023-07-20T10:29:58;1.42;;;1.25;;
20365;SDS011;10341;49.894;8.822;2023-07-20T10:35:20;1.05;;;0.95;;
20365;SDS011;10341;49.894;8.822;2023-07-20T10:40:39;1.48;;;1.00;;
20365;SDS011;10341;49.894;8.822;2023-07-20T10:45:59;2.10;;;1.13;;
20365;SDS011;10341;49.894;8.822;2023-07-20T10:51:21;1.77;;;0.90;;
20365;SDS011;10341;49.894;8.822;2023-07-20T10:56:42;1.77;;;1.20;;
20365;SDS011;10341;49.894;8.822;2023-07-20T11:02:06;1.98;;;1.20;;
20365;SDS011;10341;49.894;8.822;2023-07-20T11:07:36;1.48;;;1.02;;
20365;SDS011;10341;49.894;8.822;2023-07-20T11:18:36;1.45;;;1.20;;
20365;SDS011;10341;49.894;8.822;2023-07-20T11:23:58;2.15;;;1.30;;
20365;SDS011;10341;49.894;8.822;2023-07-20T11:29:22;1.23;;;1.00;;
20365;SDS011;10341;49.894;8.822;2023-07-20T11:34:46;1.20;;;1.10;;
20365;SDS011;10341;49.894;8.822;2023-07-20T11:40:06;2.08;;;1.20;;
20365;SDS011;10341;49.894;8.822;2023-07-20T11:45:28;1.85;;;1.33;;
20365;SDS011;10341;49.894;8.822;2023-07-20T11:50:52;1.17;;;0.90;;
20365;SDS011;10341;49.894;8.822;2023-07-20T11:56:11;1.13;;;0.90;;
20365;SDS011;10341;49.894;8.822;2023-07-20T12:01:31;3.17;;;1.15;;
20365;SDS011;10341;49.894;8.822;2023-07-20T12:06:53;1.70;;;1.13;;
20365;SDS011;10341;49.894;8.822;2023-07-20T12:12:14;1.13;;;0.90;;
20365;SDS011;10341;49.894;8.822;2023-07-20T12:17:33;1.90;;;1.13;;
20365;SDS011;10341;49.894;8.822;2023-07-20T12:22:55;1.98;;;1.10;;
20365;SDS011;10341;49.894;8.822;2023-07-20T12:28:16;1.77;;;1.17;;
20365;SDS011;10341;49.894;8.822;2023-07-20T12:33:37;1.70;;;1.10;;
20365;SDS011;10341;49.894;8.822;2023-07-20T12:38:57;2.10;;;1.15;;
20365;SDS011;10341;49.894;8.822;2023-07-20T12:44:17;1.63;;;1.20;;
20365;SDS011;10341;49.894;8.822;2023-07-20T12:49:36;2.92;;;0.90;;
20365;SDS011;10341;49.894;8.822;2023-07-20T12:54:56;1.67;;;1.10;;
20365;SDS011;10341;49.894;8.822;2023-07-20T13:00:15;1.73;;;1.00;;
20365;SDS011;10341;49.894;8.822;2023-07-20T13:05:35;1.40;;;0.98;;
20365;SDS011;10341;49.894;8.822;2023-07-20T13:10:55;1.35;;;1.10;;
20365;SDS011;10341;49.894;8.822;2023-07-20T13:16:15;2.58;;;1.10;;
20365;SDS011;10341;49.894;8.822;2023-07-20T13:21:35;1.30;;;1.20;;
20365;SDS011;10341;49.894;8.822;2023-07-20T13:26:54;1.23;;;1.05;;
20365;SDS011;10341;49.894;8.822;2023-07-20T13:32:14;1.92;;;1.20;;
20365;SDS011;10341;49.894;8.822;2023-07-20T13:37:34;3.08;;;1.30;;
20365;SDS011;10341;49.894;8.822;2023-07-20T13:42:53;4.30;;;1.42;;
20365;SDS011;10341;49.894;8.822;2023-07-20T13:48:13;3.78;;;1.30;;
20365;SDS011;10341;49.894;8.822;2023-07-20T13:53:33;3.60;;;1.38;;
20365;SDS011;10341;49.894;8.822;2023-07-20T13:58:52;1.65;;;0.98;;
20365;SDS011;10341;49.894;8.822;2023-07-20T14:04:12;1.35;;;1.25;;
20365;SDS011;10341;49.894;8.822;2023-07-20T14:14:51;1.88;;;1.30;;
20365;SDS011;10341;49.894;8.822;2023-07-20T14:20:12;1.92;;;1.30;;
20365;SDS011;10341;49.894;8.822;2023-07-20T14:25:31;3.30;;;1.30;;
20365;SDS011;10341;49.894;8.822;2023-07-20T14:30:51;1.17;;;1.00;;
20365;SDS011;10341;49.894;8.822;2023-07-20T14:36:11;1.27;;;1.15;;
20365;SDS011;10341;49.894;8.822;2023-07-20T14:41:30;2.30;;;1.17;;
20365;SDS011;10341;49.894;8.822;2023-07-20T14:46:50;2.58;;;1.10;;
20365;SDS011;10341;49.894;8.822;2023-07-20T14:52:10;2.33;;;1.38;;
20365;SDS011;10341;49.894;8.822;2023-07-20T14:57:29;1.48;;;1.10;;
20365;SDS011;10341;49.894;8.822;2023-07-20T15:02:49;1.90;;;1.05;;
20365;SDS011;10341;49.894;8.822;2023-07-20T15:08:08;2.63;;;1.25;;
20365;SDS011;10341;49.894;8.822;2023-07-20T15:13:28;1.10;;;1.00;;
20365;SDS011;10341;49.894;8.822;2023-07-20T15:18:47;2.03;;;1.23;;
20365;SDS011;10341;49.894;8.822;2023-07-20T15:24:07;1.52;;;1.20;;
20365;SDS011;10341;49.894;8.822;2023-07-20T15:29:26;1.90;;;1.35;;
20365;SDS011;10341;49.894;8.822;2023-07-20T15:34:46;1.95;;;0.90;;
20365;SDS011;10341;49.894;8.822;2023-07-20T15:40:06;2.05;;;1.02;;
20365;SDS011;10341;49.894;8.822;2023-07-20T15:45:27;1.52;;;0.93;;
20365;SDS011;10341;49.894;8.822;2023-07-20T15:50:47;1.23;;;0.93;;
20365;SDS011;10341;49.894;8.822;2023-07-20T15:56:06;1.42;;;0.80;;
20365;SDS011;10341;49.894;8.822;2023-07-20T16:01:26;1.98;;;1.42;;
20365;SDS011;10341;49.894;8.822;2023-07-20T16:06:45;1.00;;;0.90;;
20365;SDS011;10341;49.894;8.822;2023-07-20T16:12:05;2.22;;;0.90;;
20365;SDS011;10341;49.894;8.822;2023-07-20T16:17:25;2.70;;;1.30;;
20365;SDS011;10341;49.894;8.822;2023-07-20T16:22:44;1.85;;;1.20;;
20365;SDS011;10341;49.894;8.822;2023-07-20T16:28:04;1.38;;;1.10;;
20365;SDS011;10341;49.894;8.822;2023-07-20T16:33:23;1.88;;;1.25;;
20365;SDS011;10341;49.894;8.822;2023-07-20T16:38:43;1.25;;;0.95;;
20365;SDS011;10341;49.894;8.822;2023-07-20T16:44:02;1.95;;;1.17;;
20365;SDS011;10341;49.894;8.822;2023-07-20T16:49:22;1.17;;;1.08;;
20365;SDS011;10341;49.894;8.822;2023-07-20T16:54:42;1.38;;;1.20;;
20365;SDS011;10341;49.894;8.822;2023-07-20T17:05:22;1.38;;;1.17;;
20365;SDS011;10341;49.894;8.822;2023-07-20T17:16:01;1.88;;;1.05;;
20365;SDS011;10341;49.894;8.822;2023-07-20T17:21:21;1.25;;;1.10;;
20365;SDS011;10341;49.894;8.822;2023-07-20T17:26:40;1.90;;;1.17;;
20365;SDS011;10341;49.894;8.822;2023-07-20T17:32:00;1.88;;;1.00;;
20365;SDS011;10341;49.894;8.822;2023-07-20T17:37:19;1.67;;;1.30;;
20365;SDS011;10341;49.894;8.822;2023-07-20T17:42:40;2.30;;;1.17;;
20365;SDS011;10341;49.894;8.822;2023-07-20T17:47:59;1.20;;;1.10;;
20365;SDS011;10341;49.894;8.822;2023-07-20T17:53:19;2.05;;;1.20;;
20365;SDS011;10341;49.894;8.822;2023-07-20T17:58:39;1.67;;;1.30;;
20365;SDS011;10341;49.894;8.822;2023-07-20T18:03:58;1.92;;;1.40;;
20365;SDS011;10341;49.894;8.822;2023-07-20T18:09:18;1.50;;;1.40;;
20365;SDS011;10341;49.894;8.822;2023-07-20T18:14:37;1.65;;;1.10;;
20365;SDS011;10341;49.894;8.822;2023-07-20T18:19:57;1.55;;;1.30;;
20365;SDS011;10341;49.894;8.822;2023-07-20T18:25:16;1.50;;;1.27;;
20365;SDS011;10341;49.894;8.822;2023-07-20T18:30:36;1.20;;;1.10;;
20365;SDS011;10341;49.894;8.822;2023-07-20T18:35:55;2.10;;;1.55;;
20365;SDS011;10341;49.894;8.822;2023-07-20T18:41:15;2.15;;;1.45;;
20365;SDS011;10341;49.894;8.822;2023-07-20T18:46:35;2.60;;;1.35;;
20365;SDS011;10341;49.894;8.822;2023-07-20T18:51:54;1.40;;;1.30;;
20365;SDS011;10341;49.894;8.822;2023-07-20T18:57:14;2.00;;;1.33;;
20365;SDS011;10341;49.894;8.822;2023-07-20T19:02:34;1.85;;;1.55;;
20365;SDS011;10341;49.894;8.822;2023-07-20T19:07:53;2.22;;;1.85;;
20365;SDS011;10341;49.894;8.822;2023-07-20T19:13:15;1.90;;;1.70;;
20365;SDS011;10341;49.894;8.822;2023-07-20T19:18:35;2.03;;;1.77;;
20365;SDS011;10341;49.894;8.822;2023-07-20T19:23:58;4.57;;;2.10;;
20365;SDS011;10341;49.894;8.822;2023-07-20T19:29:18;2.42;;;1.98;;
20365;SDS011;10341;49.894;8.822;2023-07-20T19:34:38;2.50;;;1.63;;
20365;SDS011;10341;49.894;8.822;2023-07-20T19:39:57;2.30;;;1.88;;
20365;SDS011;10341;49.894;8.822;2023-07-20T19:45:17;2.53;;;2.00;;
20365;SDS011;10341;49.894;8.822;2023-07-20T19:50:37;1.67;;;1.50;;
20365;SDS011;10341;49.894;8.822;2023-07-20T19:55:57;1.92;;;1.73;;
20365;SDS011;10341;49.894;8.822;2023-07-20T20:01:20;3.17;;;2.17;;
20365;SDS011;10341;49.894;8.822;2023-07-20T20:06:41;2.85;;;1.95;;
20365;SDS011;10341;49.894;8.822;2023-07-20T20:17:22;2.73;;;1.77;;
20365;SDS011;10341;49.894;8.822;2023-07-20T20:22:41;2.65;;;2.08;;
20365;SDS011;10341;49.894;8.822;2023-07-20T20:28:01;3.30;;;1.80;;
20365;SDS011;10341;49.894;8.822;2023-07-20T20:33:21;2.70;;;1.90;;
20365;SDS011;10341;49.894;8.822;2023-07-20T20:44:00;2.42;;;1.88;;
20365;SDS011;10341;49.894;8.822;2023-07-20T20:49:19;2.17;;;1.80;;
20365;SDS011;10341;49.894;8.822;2023-07-20T20:54:39;2.63;;;1.83;;
20365;SDS011;10341;49.894;8.822;2023-07-20T20:59:59;4.00;;;1.80;;
20365;SDS011;10341;49.894;8.822;2023-07-20T21:05:18;2.40;;;1.83;;
20365;SDS011;10341;49.894;8.822;2023-07-20T21:10:42;2.92;;;2.17;;
20365;SDS011;10341;49.894;8.822;2023-07-20T21:16:04;3.90;;;2.67;;
20365;SDS011;10341;49.894;8.822;2023-07-20T21:21:23;2.17;;;1.95;;
20365;SDS011;10341;49.894;8.822;2023-07-20T21:26:43;1.77;;;1.60;;
20365;SDS011;10341;49.894;8.822;2023-07-20T21:32:02;2.30;;;2.00;;
20365;SDS011;10341;49.894;8.822;2023-07-20T21:42:42;2.40;;;1.88;;
20365;SDS011;10341;49.894;8.822;2023-07-20T21:48:01;2.63;;;2.07;;
20365;SDS011;10341;49.894;8.822;2023-07-20T21:53:21;2.05;;;1.73;;
20365;SDS011;10341;49.894;8.822;2023-07-20T21:58:40;2.10;;;1.67;;
20365;SDS011;10341;49.894;8.822;2023-07-20T22:04:00;2.42;;;2.15;;
20365;SDS011;10341;49.894;8.822;2023-07-20T22:09:20;3.90;;;2.17;;
20365;SDS011;10341;49.894;8.822;2023-07-20T22:14:40;2.13;;;1.92;;
20365;SDS011;10341;49.894;8.822;2023-07-20T22:20:01;2.17;;;1.90;;
20365;SDS011;10341;49.894;8.822;2023-07-20T22:25:24;3.22;;;2.08;;
20365;SDS011;10341;49.894;8.822;2023-07-20T22:30:43;2.65;;;2.10;;
20365;SDS011;10341;49.894;8.822;2023-07-20T22:36:03;2.65;;;2.28;;
20365;SDS011;10341;49.894;8.822;2023-07-20T22:46:43;3.10;;;2.10;;
20365;SDS011;10341;49.894;8.822;2023-07-20T22:52:02;2.63;;;2.30;;
20365;SDS011;10341;49.894;8.822;2023-07-20T22:57:22;2.25;;;2.05;;
20365;SDS011;10341;49.894;8.822;2023-07-20T23:02:42;4.65;;;2.65;;
20365;SDS011;10341;49.894;8.822;2023-07-20T23:08:02;2.58;;;2.25;;
20365;SDS011;10341;49.894;8.822;2023-07-20T23:13:22;2.83;;;2.33;;
20365;SDS011;10341;49.894;8.822;2023-07-20T23:18:43;3.28;;;2.47;;
20365;SDS011;10341;49.894;8.822;2023-07-20T23:24:04;2.20;;;2.00;;
20365;SDS011;10341;49.894;8.822;2023-07-20T23:29:24;2.28;;;2.03;;
20365;SDS011;10341;49.894;8.822;2023-07-20T23:34:43;3.17;;;2.72;;
20365;SDS011;10341;49.894;8.822;2023-07-20T23:40:03;3.17;;;2.43;;
20365;SDS011;10341;49.894;8.822;2023-07-20T23:45:33;4.00;;;2.42;;
20365;SDS011;10341;49.894;8.822;2023-07-20T23:50:55;2.33;;;2.13;;
20365;SDS011;10341;49.894;8.822;2023-07-20T23:56:14;2.50;;;2.30;;
